Time;durP1;ratioP1;P1;durP2;ratioP2;P2;SDS_P1;SDS_P2;PMS_P1;PMS_P2;Temp;Humidity;BMP_temperature;BMP_pressure;BME280_temperature;BME280_humidity;BME280_pressure;Samples;Min_cycle;Max_cycle;Signal;HPM_P1;HPM_P2
2022/09/23 00:00:36;;;;;;;16.20;9.08;;;;;;;7.72;100.00;98525.88;1758025;81;21051;-88
2022/09/23 00:03:04;;;;;;;16.73;8.90;;;;;;;7.71;100.00;98524.78;1757752;81;21034;-85
2022/09/23 00:05:30;;;;;;;13.58;8.35;;;;;;;7.73;100.00;98521.30;1758204;81;21104;-84
2022/09/23 00:07:56;;;;;;;14.93;8.88;;;;;;;7.75;100.00;98525.91;1757810;81;20999;-87
2022/09/23 00:10:24;;;;;;;18.17;10.23;;;;;;;7.75;100.00;98524.02;1757810;81;21058;-88
2022/09/23 00:12:50;;;;;;;11.28;7.50;;;;;;;7.74;100.00;98518.88;1757781;81;21074;-87
2022/09/23 00:15:16;;;;;;;16.80;8.18;;;;;;;7.73;100.00;98516.72;1757974;81;21707;-83
2022/09/23 00:17:43;;;;;;;10.32;7.03;;;;;;;7.71;100.00;98522.09;1757918;81;21121;-84
2022/09/23 00:20:09;;;;;;;10.58;6.97;;;;;;;7.69;100.00;98514.25;1757782;81;21039;-87
2022/09/23 00:22:35;;;;;;;23.47;9.48;;;;;;;7.69;100.00;98506.66;1756682;81;21083;-87
2022/09/23 00:25:04;;;;;;;15.75;9.63;;;;;;;7.68;100.00;98509.89;1754573;81;21020;-87
2022/09/23 00:27:32;;;;;;;23.52;12.05;;;;;;;7.65;100.00;98505.00;1757435;81;21020;-87
2022/09/23 00:29:59;;;;;;;27.80;12.15;;;;;;;7.62;100.00;98503.63;1758026;81;21278;-84
2022/09/23 00:32:25;;;;;;;18.73;9.33;;;;;;;7.60;100.00;98508.97;1728232;81;22068;-88
2022/09/23 00:34:51;;;;;;;19.73;10.63;;;;;;;7.55;100.00;98501.64;1757873;81;21046;-85
2022/09/23 00:37:18;;;;;;;28.32;9.33;;;;;;;7.54;100.00;98503.23;1757016;81;20899;-87
2022/09/23 00:39:45;;;;;;;35.48;11.50;;;;;;;7.52;100.00;98497.25;1757333;81;21047;-88
2022/09/23 00:42:19;;;;;;;23.80;10.65;;;;;;;7.49;100.00;98491.84;1756790;81;21198;-88
2022/09/23 00:44:50;;;;;;;19.52;10.75;;;;;;;7.45;100.00;98489.36;1757904;81;21062;-87
2022/09/23 00:47:32;;;;;;;21.50;9.38;;;;;;;7.42;100.00;98485.80;1757691;81;21070;-88
2022/09/23 00:50:37;;;;;;;18.23;10.63;;;;;;;7.41;100.00;98486.05;1757950;81;21467;-84
2022/09/23 00:53:04;;;;;;;28.95;10.58;;;;;;;7.40;100.00;98493.86;1757211;81;21113;-84
2022/09/23 00:55:34;;;;;;;30.15;10.30;;;;;;;7.38;100.00;98494.64;1726695;81;21086;-88
2022/09/23 00:58:01;;;;;;;22.70;9.80;;;;;;;7.38;100.00;98495.99;1757574;81;21031;-83
2022/09/23 01:00:27;;;;;;;31.90;9.03;;;;;;;7.32;100.00;98487.81;1757885;81;21066;-88
2022/09/23 01:02:53;;;;;;;26.50;9.45;;;;;;;7.33;100.00;98488.62;1757971;81;20899;-85
2022/09/23 01:05:20;;;;;;;24.70;10.30;;;;;;;7.33;100.00;98492.67;1758006;81;21526;-83
2022/09/23 01:07:46;;;;;;;36.40;10.50;;;;;;;7.35;100.00;98487.88;1728114;81;21117;-84
2022/09/23 01:10:14;;;;;;;26.20;10.20;;;;;;;7.35;100.00;98488.69;1757643;81;21094;-83
2022/09/23 01:13:06;;;;;;;16.52;10.72;;;;;;;7.33;100.00;98489.45;1757301;81;21023;-87
2022/09/23 01:15:47;;;;;;;23.40;9.18;;;;;;;7.31;100.00;98492.11;1709256;81;20986;-84
2022/09/23 01:18:40;;;;;;;19.45;9.08;;;;;;;7.32;100.00;98485.66;1756056;81;21518;-88
2022/09/23 01:21:20;;;;;;;16.60;9.05;;;;;;;7.32;100.00;98481.08;1757663;81;21117;-84
2022/09/23 01:24:13;;;;;;;19.70;9.88;;;;;;;7.34;100.00;98481.63;1754174;81;21016;-85
2022/09/23 01:26:56;;;;;;;14.65;8.88;;;;;;;7.35;100.00;98479.78;1743751;81;21015;-84
2022/09/23 01:30:03;;;;;;;15.70;8.85;;;;;;;7.38;100.00;98471.73;1733413;82;21078;-84
2022/09/23 01:32:56;;;;;;;12.78;8.85;;;;;;;7.41;100.00;98474.73;1733048;82;21070;-84
2022/09/23 01:35:41;;;;;;;15.38;8.90;;;;;;;7.41;100.00;98462.59;1733390;82;21856;-87
2022/09/23 01:38:37;;;;;;;14.13;8.65;;;;;;;7.40;100.00;98465.55;1733241;82;20988;-87
2022/09/23 01:41:15;;;;;;;16.40;8.00;;;;;;;7.41;100.00;98465.83;1733175;82;21019;-87
2022/09/23 01:44:25;;;;;;;12.10;7.50;;;;;;;7.39;100.00;98461.22;1733048;82;21539;-84
2022/09/23 01:47:15;;;;;;;13.58;8.43;;;;;;;7.37;100.00;98467.40;1733305;82;21043;-84
2022/09/23 01:49:55;;;;;;;24.55;9.88;;;;;;;7.38;100.00;98475.77;1733412;82;21244;-83
2022/09/23 01:52:39;;;;;;;22.42;9.80;;;;;;;7.37;100.00;98474.95;1732993;82;21300;-88
2022/09/23 01:55:30;;;;;;;23.05;11.08;;;;;;;7.37;100.00;98474.95;1733034;82;21264;-88
2022/09/23 01:58:04;;;;;;;29.25;10.35;;;;;;;7.35;100.00;98468.47;1733139;82;21607;-87
2022/09/23 02:00:33;;;;;;;27.48;11.48;;;;;;;7.33;100.00;98471.92;1732216;82;21095;-85
2022/09/23 02:03:03;;;;;;;;;;;;;;;7.30;100.00;98467.03;1735630;82;22012;-88
2022/09/23 02:05:37;;;;;;;22.30;10.75;;;;;;;7.30;100.00;98468.91;1732138;82;20195;-88
2022/09/23 02:08:19;;;;;;;18.45;10.45;;;;;;;7.24;100.00;98469.36;1733190;82;20995;-88
2022/09/23 02:10:50;;;;;;;19.60;11.93;;;;;;;7.23;100.00;98470.96;1732108;82;21012;-88
2022/09/23 02:13:23;;;;;;;20.88;10.13;;;;;;;7.24;100.00;98464.50;1733207;82;21027;-84
2022/09/23 02:15:51;;;;;;;19.60;12.20;;;;;;;7.26;100.00;98461.02;1733975;82;21279;-87
2022/09/23 02:18:21;;;;;;;17.25;10.80;;;;;;;7.31;100.00;98466.50;1733124;82;21059;-88
2022/09/23 02:20:47;;;;;;;17.95;9.90;;;;;;;7.33;100.00;98465.72;1733433;82;21067;-88
2022/09/23 02:23:18;;;;;;;14.07;9.85;;;;;;;7.33;100.00;98467.06;1745290;81;21007;-85
2022/09/23 02:26:07;;;;;;;13.40;9.03;;;;;;;7.34;100.00;98462.77;1754674;81;21004;-83
2022/09/23 02:28:45;;;;;;;13.08;8.88;;;;;;;7.37;100.00;98463.36;1757811;81;21412;-87
2022/09/23 02:31:22;;;;;;;17.70;10.45;;;;;;;7.35;100.00;98476.55;1757298;81;21440;-84
2022/09/23 02:34:24;;;;;;;16.27;9.85;;;;;;;7.37;100.00;98476.84;1757575;81;21456;-88
2022/09/23 02:37:24;;;;;;;13.55;8.58;;;;;;;7.39;100.00;98471.47;1691398;84;21066;-84
2022/09/23 02:40:17;;;;;;;11.78;7.92;;;;;;;7.41;100.00;98472.03;1758007;81;21057;-84
2022/09/23 02:43:06;;;;;;;14.10;8.75;;;;;;;7.35;100.00;98464.42;1761120;80;21467;-87
2022/09/23 02:45:32;;;;;;;15.48;8.70;;;;;;;7.34;100.00;98462.77;1758073;81;21046;-87
2022/09/23 02:48:08;;;;;;;13.50;9.43;;;;;;;7.37;100.00;98466.87;1757871;81;21459;-88
2022/09/23 02:50:34;;;;;;;13.98;9.15;;;;;;;7.39;100.00;98467.96;1757953;81;21010;-84
2022/09/23 02:53:00;;;;;;;14.93;9.58;;;;;;;7.37;100.00;98469.56;1726774;81;21515;-88
2022/09/23 02:55:31;;;;;;;14.63;8.60;;;;;;;7.38;100.00;98471.19;1758097;81;21320;-88
2022/09/23 02:58:01;;;;;;;15.98;9.90;;;;;;;7.43;100.00;98474.47;1757628;81;21030;-87
2022/09/23 03:00:36;;;;;;;14.60;7.83;;;;;;;7.46;100.00;98474.81;1757704;81;21282;-84
2022/09/23 03:03:40;;;;;;;15.58;9.10;;;;;;;7.43;100.00;98473.94;1753425;81;20995;-83
2022/09/23 03:06:20;;;;;;;12.88;8.55;;;;;;;7.43;100.00;98473.12;1758046;81;21004;-87
2022/09/23 03:08:53;;;;;;;15.43;8.85;;;;;;;7.45;100.00;98465.62;1752109;81;21325;-83
2022/09/23 03:11:20;;;;;;;29.95;18.42;;;;;;;7.49;100.00;98464.87;1757877;80;21023;-87
2022/09/23 03:14:20;;;;;;;56.23;30.43;;;;;;;7.53;100.00;98461.16;1757815;81;21018;-88
2022/09/23 03:17:03;;;;;;;21.70;13.05;;;;;;;7.54;100.00;98456.05;1757695;81;20999;-84
2022/09/23 03:20:08;;;;;;;15.90;10.35;;;;;;;7.55;100.00;98459.02;1757827;81;21054;-84
2022/09/23 03:22:41;;;;;;;14.43;9.23;;;;;;;7.55;100.00;98457.14;1756320;81;21155;-84
2022/09/23 03:25:12;;;;;;;14.60;9.15;;;;;;;7.57;100.00;98456.34;1754446;81;21033;-88
2022/09/23 03:27:37;;;;;;;15.00;9.98;;;;;;;7.59;100.00;98454.21;1757321;81;21031;-84
2022/09/23 03:30:05;;;;;;;13.58;8.55;;;;;;;7.60;100.00;98457.19;1758073;81;20888;-88
2022/09/23 03:32:31;;;;;;;14.25;9.33;;;;;;;7.63;100.00;98454.55;1726875;81;21579;-88
2022/09/23 03:34:59;;;;;;;16.60;10.72;;;;;;;7.64;100.00;98452.13;1757959;81;21246;-87
2022/09/23 03:37:48;;;;;;;17.17;10.38;;;;;;;7.68;100.00;98452.43;1757646;81;21078;-88
2022/09/23 03:40:28;;;;;;;15.07;9.03;;;;;;;7.69;100.00;98453.55;1758133;81;20999;-88
2022/09/23 03:42:55;;;;;;;15.23;9.45;;;;;;;7.69;100.00;98454.91;1757663;81;21488;-88
2022/09/23 03:45:25;;;;;;;17.75;10.53;;;;;;;7.61;100.00;98445.36;1758050;81;21089;-83
2022/09/23 03:47:51;;;;;;;16.37;9.20;;;;;;;7.61;100.00;98445.36;1757799;81;21885;-83
2022/09/23 03:50:17;;;;;;;16.15;10.45;;;;;;;7.67;100.00;98450.27;1757831;81;20960;-84
2022/09/23 03:52:43;;;;;;;13.20;8.33;;;;;;;7.69;100.00;98447.31;1757726;81;20896;-85
2022/09/23 03:55:09;;;;;;;12.58;8.80;;;;;;;7.69;100.00;98448.16;1757958;81;20951;-85
2022/09/23 03:57:36;;;;;;;19.30;11.48;;;;;;;7.70;100.00;98443.58;1757883;81;21042;-84
2022/09/23 04:00:05;;;;;;;18.10;11.55;;;;;;;7.69;100.00;98441.42;1757949;81;22013;-84
2022/09/23 04:02:31;;;;;;;16.95;10.08;;;;;;;7.69;100.00;98436.52;1757575;81;21074;-85
2022/09/23 04:04:57;;;;;;;17.75;11.55;;;;;;;7.70;100.00;98439.00;1757927;81;20967;-88
2022/09/23 04:07:24;;;;;;;23.05;10.10;;;;;;;7.72;100.00;98444.14;1757792;81;20951;-88
2022/09/23 04:09:50;;;;;;;19.70;11.50;;;;;;;7.73;100.00;98439.84;1757979;81;21030;-87
2022/09/23 04:12:16;;;;;;;20.00;11.97;;;;;;;7.77;100.00;98436.09;1757590;81;21265;-88
2022/09/23 04:14:42;;;;;;;13.10;9.45;;;;;;;7.75;100.00;98433.64;1758052;81;20939;-84
2022/09/23 04:17:08;;;;;;;17.12;10.68;;;;;;;7.76;100.00;98439.33;1757883;81;21601;-85
2022/09/23 04:19:34;;;;;;;20.32;11.73;;;;;;;7.79;100.00;98428.05;1757921;81;20868;-87
2022/09/23 04:22:00;;;;;;;29.52;17.10;;;;;;;7.85;100.00;98438.34;1757911;81;20987;-85
2022/09/23 04:24:26;;;;;;;27.62;20.23;;;;;;;7.86;100.00;98439.98;1757861;81;20986;-87
2022/09/23 04:26:53;;;;;;;32.70;24.37;;;;;;;7.89;100.00;98437.61;1758329;81;21138;-87
2022/09/23 04:29:20;;;;;;;35.50;25.57;;;;;;;7.94;100.00;98438.19;1757654;81;21328;-84
2022/09/23 04:31:46;;;;;;;33.25;25.43;;;;;;;8.00;100.00;98447.98;1757196;81;21046;-88
2022/09/23 04:34:12;;;;;;;38.88;27.37;;;;;;;8.06;100.00;98452.38;1757819;81;21034;-88
2022/09/23 04:36:38;;;;;;;33.40;25.35;;;;;;;8.06;100.00;98452.38;1758032;81;22031;-88
2022/09/23 04:39:04;;;;;;;37.05;26.93;;;;;;;8.10;100.00;98448.63;1757735;81;20900;-84
2022/09/23 04:41:31;;;;;;;30.02;19.98;;;;;;;8.10;100.00;98444.03;1728306;81;21011;-84
2022/09/23 04:43:57;;;;;;;26.20;19.73;;;;;;;8.11;100.00;98443.50;1757817;81;20895;-83
2022/09/23 04:46:23;;;;;;;26.70;16.07;;;;;;;8.11;100.00;98445.66;1757939;81;20872;-87
2022/09/23 04:48:49;;;;;;;20.35;14.15;;;;;;;8.10;100.00;98446.73;1757772;81;21491;-88
2022/09/23 04:51:20;;;;;;;19.12;13.13;;;;;;;8.11;100.00;98448.36;1758092;81;20935;-84
2022/09/23 04:53:47;;;;;;;34.08;24.98;;;;;;;8.13;100.00;98448.14;1753170;81;21069;-84
2022/09/23 04:56:16;;;;;;;29.70;22.77;;;;;;;8.13;100.00;98448.95;1758077;81;21022;-85
2022/09/23 04:58:43;;;;;;;;;;;;;;;8.16;100.00;98450.31;1754270;81;21071;-84
2022/09/23 05:01:14;;;;;;;35.83;24.00;;;;;;;8.17;100.00;98450.06;1750626;81;21154;-84
2022/09/23 05:03:41;;;;;;;44.80;30.25;;;;;;;8.15;100.00;98453.55;1735440;81;21509;-88
2022/09/23 05:06:07;;;;;;;48.15;32.65;;;;;;;8.16;100.00;98451.67;1742016;82;21060;-88
2022/09/23 05:08:34;;;;;;;51.65;31.42;;;;;;;8.14;100.00;98452.46;1746679;81;21001;-84
2022/09/23 05:11:03;;;;;;;50.55;31.37;;;;;;;8.14;100.00;98453.28;1739254;80;21047;-87
2022/09/23 05:13:30;;;;;;;41.53;27.15;;;;;;;8.15;100.00;98460.30;1747087;80;21021;-83
2022/09/23 05:16:00;;;;;;;33.25;21.97;;;;;;;8.15;100.00;98460.30;1752380;81;20959;-88
2022/09/23 05:18:29;;;;;;;28.85;17.62;;;;;;;8.16;100.00;98461.93;1785522;78;21052;-83
2022/09/23 05:20:55;;;;;;;26.25;17.20;;;;;;;8.16;100.00;98460.58;1792447;80;21488;-88
2022/09/23 05:23:22;;;;;;;26.12;18.50;;;;;;;8.19;100.00;98457.91;1770806;80;20870;-89
2022/09/23 05:25:50;;;;;;;25.45;17.20;;;;;;;8.23;100.00;98460.92;1758028;81;21094;-84
2022/09/23 05:28:17;;;;;;;24.93;14.47;;;;;;;8.23;100.00;98460.92;1745577;80;21020;-87
2022/09/23 05:30:43;;;;;;;23.07;14.07;;;;;;;8.24;100.00;98462.55;1741635;82;21486;-88
2022/09/23 05:33:10;;;;;;;18.80;13.28;;;;;;;8.23;100.00;98460.92;1755948;80;21060;-88
2022/09/23 05:35:36;;;;;;;18.32;12.60;;;;;;;8.30;100.00;98466.41;1735744;80;20997;-84
2022/09/23 05:38:02;;;;;;;16.67;12.80;;;;;;;8.33;100.00;98466.42;1732815;81;21101;-88
2022/09/23 05:40:28;;;;;;;18.40;11.88;;;;;;;8.36;100.00;98474.05;1740286;81;21019;-87
2022/09/23 05:42:55;;;;;;;19.27;10.58;;;;;;;8.41;100.00;98472.76;1738179;80;20900;-88
2022/09/23 05:45:21;;;;;;;17.45;11.18;;;;;;;8.46;100.00;98468.77;1737275;81;21027;-87
2022/09/23 05:47:47;;;;;;;16.67;9.95;;;;;;;8.45;100.00;98473.33;1727882;81;21039;-88
2022/09/23 05:50:13;;;;;;;19.92;12.23;;;;;;;8.43;100.00;98468.72;1750715;81;21099;-84
2022/09/23 05:52:40;;;;;;;18.77;11.63;;;;;;;8.47;100.00;98473.91;1754930;80;21002;-88
2022/09/23 05:55:07;;;;;;;16.37;11.50;;;;;;;8.51;100.00;98472.04;1771576;80;21026;-89
2022/09/23 05:57:33;;;;;;;16.37;12.37;;;;;;;8.60;100.00;98477.27;1751267;80;21045;-88
2022/09/23 05:59:59;;;;;;;18.80;13.58;;;;;;;8.66;100.00;98475.70;1751205;80;20856;-84
2022/09/23 06:02:25;;;;;;;19.85;12.25;;;;;;;8.73;100.00;98470.10;1746628;80;21212;-88
2022/09/23 06:04:51;;;;;;;20.68;16.48;;;;;;;8.81;100.00;98477.74;1757964;80;20876;-84
2022/09/23 06:07:16;;;;;;;18.90;15.43;;;;;;;8.88;100.00;98473.45;1757959;80;20951;-84
2022/09/23 06:09:42;;;;;;;22.00;17.62;;;;;;;8.96;100.00;98477.03;1745977;80;21559;-88
2022/09/23 06:12:08;;;;;;;22.87;16.48;;;;;;;9.05;100.00;98472.78;1746472;81;20919;-85
2022/09/23 06:14:35;;;;;;;23.52;16.67;;;;;;;9.14;100.00;98471.77;1741413;80;21198;-88
2022/09/23 06:17:01;;;;;;;25.15;15.95;;;;;;;9.09;100.00;98469.86;1747671;80;21080;-84
2022/09/23 06:19:27;;;;;;;25.05;16.97;;;;;;;9.10;100.00;98474.19;1748023;80;21632;-84
2022/09/23 06:21:53;;;;;;;20.52;15.70;;;;;;;9.15;100.00;98480.99;1748387;80;20900;-84
2022/09/23 06:24:19;;;;;;;29.02;15.38;;;;;;;9.24;100.00;98473.21;1752899;81;21000;-89
2022/09/23 06:26:45;;;;;;;20.95;15.03;;;;;;;9.33;100.00;98479.77;1751604;80;21123;-84
2022/09/23 06:29:11;;;;;;;23.15;15.45;;;;;;;9.39;100.00;98477.89;1726655;80;20917;-84
2022/09/23 06:31:39;;;;;;;20.57;15.88;;;;;;;9.45;100.00;98481.72;1747420;80;20976;-84
2022/09/23 06:34:06;;;;;;;20.68;16.25;;;;;;;9.51;100.00;98481.23;1729058;80;21107;-84
2022/09/23 06:36:34;;;;;;;23.02;16.07;;;;;;;9.59;100.00;98483.45;1745340;80;21716;-89
2022/09/23 06:39:01;;;;;;;22.02;16.20;;;;;;;9.53;100.00;98486.64;1744620;80;22107;-89
2022/09/23 06:41:27;;;;;;;20.70;15.63;;;;;;;9.58;100.00;98486.69;1744263;80;21079;-88
2022/09/23 06:43:52;;;;;;;21.02;15.08;;;;;;;9.64;100.00;98486.70;1751601;80;20964;-88
2022/09/23 06:46:19;;;;;;;21.90;14.80;;;;;;;9.69;100.00;98487.55;1742074;80;20878;-84
2022/09/23 06:48:45;;;;;;;23.07;14.13;;;;;;;9.77;100.00;98487.59;1751961;80;20969;-88
2022/09/23 06:51:17;;;;;;;24.50;14.63;;;;;;;9.81;100.00;98486.80;1746729;81;21002;-88
2022/09/23 06:53:40;;;;;;;23.02;15.40;;;;;;;9.94;100.00;98488.77;1730751;81;21353;-84
2022/09/23 06:56:07;;;;;;;24.35;16.52;;;;;;;10.08;100.00;98488.02;1730194;81;21108;-89
2022/09/23 06:58:34;;;;;;;24.87;17.90;;;;;;;10.26;100.00;98498.14;1767608;79;21073;-88
2022/09/23 07:01:06;;;;;;;27.37;18.75;;;;;;;10.43;100.00;98496.02;1762558;79;21020;-88
2022/09/23 07:03:32;;;;;;;29.98;18.70;;;;;;;10.55;100.00;98497.13;1744545;80;21109;-88
2022/09/23 07:05:58;;;;;;;29.72;19.95;;;;;;;10.77;100.00;98495.52;1716191;81;21447;-88
2022/09/23 07:08:26;;;;;;;26.15;18.75;;;;;;;10.89;100.00;98496.91;1743820;80;21522;-84
2022/09/23 07:10:56;;;;;;;24.95;18.30;;;;;;;11.03;100.00;98493.67;1756410;79;21398;-88
2022/09/23 07:13:22;;;;;;;29.25;19.42;;;;;;;11.04;100.00;98493.39;1774679;79;21484;-84
2022/09/23 07:15:50;;;;;;;26.90;19.05;;;;;;;11.13;100.00;98495.02;1742849;80;21113;-84
2022/09/23 07:18:17;;;;;;;28.67;19.12;;;;;;;11.44;100.00;98487.65;1747473;81;21048;-88
2022/09/23 07:20:45;;;;;;;27.62;19.87;;;;;;;11.61;100.00;98493.59;1751190;80;21067;-84
2022/09/23 07:23:11;;;;;;;24.45;18.45;;;;;;;11.71;100.00;98492.23;1761295;80;21058;-84
2022/09/23 07:25:37;;;;;;;25.55;19.35;;;;;;;11.72;100.00;98489.78;1758094;79;21051;-84
2022/09/23 07:28:04;;;;;;;29.92;20.35;;;;;;;11.79;100.00;98493.03;1753928;79;21559;-84
2022/09/23 07:30:30;;;;;;;29.85;19.87;;;;;;;11.91;100.00;98494.10;1756454;80;21277;-88
2022/09/23 07:32:56;;;;;;;27.62;18.30;;;;;;;11.88;100.00;98491.95;1749944;80;21110;-84
2022/09/23 07:35:22;;;;;;;27.17;18.92;;;;;;;11.93;100.00;98495.98;1753291;80;21000;-84
2022/09/23 07:37:49;;;;;;;26.02;18.30;;;;;;;12.05;100.00;98497.05;1749895;79;21047;-87
2022/09/23 07:40:15;;;;;;;27.62;18.27;;;;;;;12.19;100.00;98494.53;1763297;79;21960;-88
2022/09/23 07:42:41;;;;;;;30.92;21.73;;;;;;;12.38;100.00;98499.59;1713842;81;22189;-84
2022/09/23 07:45:08;;;;;;;32.53;23.60;;;;;;;12.31;100.00;98504.00;1745566;80;20980;-84
2022/09/23 07:47:34;;;;;;;27.35;18.15;;;;;;;12.78;99.97;98505.35;1750285;80;20992;-84
2022/09/23 07:50:00;;;;;;;22.87;16.70;;;;;;;13.49;99.07;98506.17;1753406;80;21035;-85
2022/09/23 07:52:26;;;;;;;22.55;15.18;;;;;;;13.49;95.21;98509.44;1746537;80;21088;-85
2022/09/23 07:54:52;;;;;;;20.37;15.25;;;;;;;13.63;93.03;98517.21;1759943;80;20909;-89
2022/09/23 07:57:18;;;;;;;22.37;16.12;;;;;;;13.78;96.51;98511.61;1746696;80;20865;-85
2022/09/23 07:59:44;;;;;;;21.85;15.40;;;;;;;13.66;92.82;98509.81;1755710;80;20909;-88
2022/09/23 08:02:11;;;;;;;16.85;13.95;;;;;;;14.47;95.26;98508.10;1763992;79;21065;-89
2022/09/23 08:04:37;;;;;;;19.82;14.93;;;;;;;15.85;81.33;98508.66;1753036;80;21052;-89
2022/09/23 08:07:04;;;;;;;19.07;13.70;;;;;;;16.89;85.31;98503.20;1752096;79;20910;-89
2022/09/23 08:09:34;;;;;;;18.85;13.32;;;;;;;16.50;82.86;98502.98;1712246;82;20984;-89
2022/09/23 08:12:00;;;;;;;20.17;14.35;;;;;;;15.90;86.02;98504.47;1734178;81;21000;-88
2022/09/23 08:14:27;;;;;;;22.02;15.10;;;;;;;15.32;85.05;98504.38;1729905;80;21005;-85
2022/09/23 08:16:53;;;;;;;20.92;15.45;;;;;;;14.88;87.96;98506.17;1731360;81;21105;-84
2022/09/23 08:19:19;;;;;;;18.70;15.15;;;;;;;14.26;82.50;98512.14;1732121;81;21420;-89
2022/09/23 08:21:48;;;;;;;23.02;16.25;;;;;;;14.23;85.67;98510.02;1742054;81;21067;-88
2022/09/23 08:24:19;;;;;;;27.07;15.75;;;;;;;15.07;84.24;98509.69;1733408;81;21066;-89
2022/09/23 08:26:46;;;;;;;26.93;13.85;;;;;;;15.38;86.32;98500.98;1731902;81;21144;-87
2022/09/23 08:29:15;;;;;;;19.85;13.28;;;;;;;15.53;86.52;98506.19;1728474;81;21067;-85
2022/09/23 08:31:41;;;;;;;22.10;16.07;;;;;;;15.76;84.30;98498.98;1732079;80;21612;-85
2022/09/23 08:34:07;;;;;;;18.17;11.90;;;;;;;16.24;85.98;98498.05;1728277;80;20920;-85
2022/09/23 08:36:33;;;;;;;17.60;12.33;;;;;;;16.31;78.41;98500.34;1730535;81;21053;-85
2022/09/23 08:38:59;;;;;;;18.40;13.00;;;;;;;16.52;78.77;98485.70;1736170;79;21027;-89
2022/09/23 08:41:55;;;;;;;17.12;12.70;;;;;;;17.29;77.48;98494.33;1733381;80;21191;-85
2022/09/23 08:44:37;;;;;;;17.10;13.22;;;;;;;17.05;71.93;98494.07;1699088;81;21064;-85
2022/09/23 08:47:27;;;;;;;26.42;15.78;;;;;;;15.95;74.42;98493.42;1740146;80;21039;-85
2022/09/23 08:50:01;;;;;;;18.77;13.85;;;;;;;15.16;76.99;98489.35;1729778;80;21058;-88
2022/09/23 08:52:50;;;;;;;19.85;14.07;;;;;;;14.84;78.18;98488.75;1730623;81;21593;-89
2022/09/23 08:55:18;;;;;;;23.50;15.70;;;;;;;14.66;80.04;98489.02;1734797;81;21554;-88
2022/09/23 08:58:20;;;;;;;22.85;16.45;;;;;;;14.84;80.59;98480.02;1735094;81;21476;-87
2022/09/23 09:01:29;;;;;;;19.05;13.68;;;;;;;14.87;80.98;98474.55;1734443;81;21023;-85
2022/09/23 09:03:59;;;;;;;19.25;12.95;;;;;;;14.88;81.58;98477.53;1738809;80;21109;-88
2022/09/23 09:06:33;;;;;;;19.23;12.10;;;;;;;14.66;79.64;98478.11;1751464;80;21512;-89
2022/09/23 09:09:01;;;;;;;20.62;13.20;;;;;;;14.56;76.48;98475.53;1746243;80;21069;-89
2022/09/23 09:11:35;;;;;;;14.73;10.58;;;;;;;14.73;80.55;98469.02;1731233;81;21095;-85
2022/09/23 09:14:37;;;;;;;16.25;10.30;;;;;;;14.72;76.25;98478.86;1736914;81;21043;-89
2022/09/23 09:17:07;;;;;;;13.90;9.90;;;;;;;14.88;79.04;98474.24;1746516;81;21032;-88
2022/09/23 09:20:03;;;;;;;15.30;11.33;;;;;;;14.35;76.67;98472.23;1731066;81;21049;-88
2022/09/23 09:22:53;;;;;;;13.98;9.95;;;;;;;14.31;79.34;98474.75;1746108;81;21139;-88
2022/09/23 09:25:44;;;;;;;15.58;11.43;;;;;;;14.02;77.75;98462.59;1754745;80;21126;-88
2022/09/23 09:28:18;;;;;;;15.98;11.25;;;;;;;13.69;80.68;98469.77;1758858;80;21800;-89
2022/09/23 09:30:45;;;;;;;17.90;11.97;;;;;;;13.54;82.54;98470.73;1751246;79;21052;-89
2022/09/23 09:33:16;;;;;;;15.32;12.65;;;;;;;13.38;82.65;98466.53;1740313;80;21088;-85
2022/09/23 09:35:49;;;;;;;18.02;12.95;;;;;;;13.31;83.63;98472.05;1776309;80;21442;-86
2022/09/23 09:38:15;;;;;;;16.05;10.98;;;;;;;13.10;84.22;98467.31;1756213;80;21536;-84
2022/09/23 09:40:45;;;;;;;17.90;11.75;;;;;;;13.08;84.21;98466.80;1755211;80;20936;-88
2022/09/23 09:43:22;;;;;;;16.20;11.30;;;;;;;13.09;83.66;98465.70;1754624;80;21131;-84
2022/09/23 09:46:04;;;;;;;14.73;10.23;;;;;;;13.11;84.50;98467.58;1748726;80;21088;-88
2022/09/23 09:48:40;;;;;;;9.48;7.45;;;;;;;13.10;84.27;98463.23;1741186;80;21347;-85
2022/09/23 09:51:21;;;;;;;11.43;8.15;;;;;;;12.95;80.54;98470.97;1724019;81;21099;-87
2022/09/23 09:53:50;;;;;;;16.23;10.55;;;;;;;12.95;81.83;98454.09;1728050;81;22571;-89
2022/09/23 09:56:15;;;;;;;17.42;12.03;;;;;;;12.93;83.38;98451.41;1722587;81;21602;-84
2022/09/23 09:59:00;;;;;;;18.27;11.28;;;;;;;12.98;83.82;98455.42;1734095;80;20976;-84
2022/09/23 10:01:31;;;;;;;17.23;11.38;;;;;;;12.84;83.71;98451.20;1725965;81;21046;-84
2022/09/23 10:04:00;;;;;;;18.10;11.65;;;;;;;12.73;84.38;98451.54;1725105;81;21012;-84
2022/09/23 10:06:34;;;;;;;13.03;8.80;;;;;;;12.79;84.90;98447.70;1721551;81;21559;-87
2022/09/23 10:09:14;;;;;;;12.05;8.78;;;;;;;12.80;84.28;98446.59;1727523;81;21096;-89
2022/09/23 10:11:40;;;;;;;11.97;8.58;;;;;;;12.88;84.10;98446.80;1728932;81;21059;-84
2022/09/23 10:14:17;;;;;;;17.85;9.85;;;;;;;13.08;84.69;98443.67;1723738;81;21150;-84
2022/09/23 10:16:47;;;;;;;11.80;8.88;;;;;;;13.24;83.30;98442.44;1729969;81;21043;-89
2022/09/23 10:19:27;;;;;;;11.33;8.38;;;;;;;13.59;84.07;98437.73;1717481;81;21075;-85
2022/09/23 10:21:57;;;;;;;12.47;8.65;;;;;;;13.87;84.35;98441.52;1722918;81;21531;-85
2022/09/23 10:24:28;;;;;;;14.87;8.65;;;;;;;13.61;79.10;98447.26;1721904;81;22209;-84
2022/09/23 10:27:06;;;;;;;11.68;7.10;;;;;;;13.66;82.31;98443.66;1723771;81;21212;-89
2022/09/23 10:29:49;;;;;;;12.33;7.62;;;;;;;13.40;80.43;98439.84;1729930;81;21111;-89
2022/09/23 10:32:32;;;;;;;9.03;6.53;;;;;;;13.25;80.25;98438.09;1705770;81;21261;-84
2022/09/23 10:35:14;;;;;;;14.68;8.25;;;;;;;13.23;81.90;98438.91;1722226;81;20965;-89
2022/09/23 10:37:54;;;;;;;10.40;6.60;;;;;;;13.09;82.03;98432.50;1723436;81;21084;-87
2022/09/23 10:46:37;;;;;;;8.78;6.08;;;;;;;12.93;83.00;98422.84;1726970;81;21043;-87
2022/09/23 10:49:34;;;;;;;8.05;5.55;;;;;;;12.93;80.75;98422.30;1725933;81;21003;-86
2022/09/23 10:52:21;;;;;;;6.25;4.53;;;;;;;13.11;80.23;98419.41;1744346;79;21114;-84
2022/09/23 10:55:17;;;;;;;10.18;7.45;;;;;;;13.32;81.14;98412.44;1734121;81;21112;-88
2022/09/23 10:57:58;;;;;;;8.68;5.10;;;;;;;13.27;80.01;98414.67;1719913;81;21064;-84
2022/09/23 11:00:36;;;;;;;6.72;4.50;;;;;;;13.24;79.48;98415.23;1726126;81;21170;-89
2022/09/23 11:03:30;;;;;;;7.13;4.50;;;;;;;13.14;78.64;98413.94;1719063;81;21072;-88
2022/09/23 11:06:11;;;;;;;6.10;4.10;;;;;;;12.90;77.14;98419.31;1741259;81;21607;-89
2022/09/23 11:09:12;;;;;;;16.77;10.78;;;;;;;12.79;77.39;98415.06;1737998;81;21792;-88
2022/09/23 11:12:02;;;;;;;8.60;5.17;;;;;;;12.80;78.17;98417.50;1628184;86;21092;-84
2022/09/23 11:15:00;;;;;;;9.03;7.50;;;;;;;12.75;79.19;98406.68;1636471;86;21027;-87
2022/09/23 11:17:54;;;;;;;10.70;6.53;;;;;;;12.61;77.98;98403.78;1701519;81;21179;-84
2022/09/23 11:20:43;;;;;;;7.20;5.28;;;;;;;12.66;79.92;98401.59;1729640;81;21555;-89
2022/09/23 11:23:48;;;;;;;6.20;4.30;;;;;;;12.68;80.16;98396.67;1729959;81;21056;-88
2022/09/23 11:27:02;;;;;;;6.35;4.83;;;;;;;12.88;79.87;98391.60;1723371;81;21118;-90
2022/09/23 11:30:06;;;;;;;7.35;5.90;;;;;;;12.98;81.10;98378.71;1722581;81;21096;-89
2022/09/23 11:32:39;;;;;;;7.12;5.37;;;;;;;13.11;79.04;98379.97;1720836;81;22162;-84
2022/09/23 11:35:18;;;;;;;6.80;4.37;;;;;;;13.17;79.60;98385.63;1720740;81;21006;-89
2022/09/23 11:37:47;;;;;;;8.35;5.58;;;;;;;13.34;78.37;98378.41;1723007;81;21288;-84
2022/09/23 11:40:33;;;;;;;6.60;4.55;;;;;;;13.34;78.41;98371.61;1724747;81;21401;-89
2022/09/23 11:43:22;;;;;;;5.85;4.50;;;;;;;13.30;79.08;98379.27;1721575;80;21079;-89
2022/09/23 11:45:57;;;;;;;9.55;4.53;;;;;;;13.21;79.00;98371.73;1723346;81;21083;-89
2022/09/23 11:48:49;;;;;;;10.35;4.90;;;;;;;13.15;79.18;98374.75;1743794;81;21168;-84
2022/09/23 11:51:36;;;;;;;9.15;4.80;;;;;;;13.17;78.47;98375.30;1730951;81;21717;-88
2022/09/23 11:54:19;;;;;;;6.03;4.28;;;;;;;13.18;79.15;98372.28;1722697;81;21127;-85
2022/09/23 11:56:49;;;;;;;6.05;3.30;;;;;;;13.28;78.58;98362.42;1721572;81;21074;-84